KGOP

Gatesville Municipal Airport

Gatesville, Texas, USA
METAR KGOP 230455Z AUTO 00000KT 10SM CLR 14/11 A3020 RMK AO2
Observed Flight Rules
Oct-23 @ 04:55 UTC (22 minutes ago) Visual Flight Rules
Visibility Clouds
10 miles
  • Clear skies
Temperatures Readings
Current 14°C / 57°F
Dewpoint 11°C / 52°F
Humidity 82%
Altimeter 30.2" Hg
Pressure 1023 hPa
Elevation 276
METAR KGOP 230455Z AUTO 00000KT 10SM CLR 14/11 A3020 RMK AO2
Observed Flight Rules
Oct-23 @ 04:55 UTC
(22 minutes ago)
VFR
Clouds
  • Clear skies
Temperature Dewpoint
14°C / 57°F 11°C / 52°F
Humidity Altimeter Pressure
82% 30.2" Hg 1023 hPa